CYCY

Clyde River Airport

Clyde River, Canada
TAF CYCY 241838Z 2419/2507 30005KT P6SM SCT100 RMK NXT FCST BY 250100Z
Issued Valid From Valid To
Sep-24 @ 18:38 UTC
(59 minutes ago)
Sep-24 @ 19:00 UTC
(37 minutes ago)
Sep-25 @ 07:00 UTC
(in 11 hours)
Sep-24 @ 19:00 to Sep-25 @ 07:00
TAF CYCY 241838Z 2419/2507 30005KT P6SM SCT100 RMK NXT FCST BY 250100Z
Wind Visibility Clouds
300° at 5 knots Greater than 6 miles
  • Scattered at 10,000' AGL
TAF CYCY 241838Z 2419/2507 30005KT P6SM SCT100 RMK NXT FCST BY 250100Z
Issued Sep-24 @ 18:38 UTC
(59 minutes ago)
Valid From Sep-24 @ 19:00 UTC
(37 minutes ago)
Valid To Sep-25 @ 07:00 UTC
(in 11 hours)
Sep-24 @ 19:00 - Sep-25 @ 07:00
Wind Visibility
300° at 5 knots Greater than 6 miles
Clouds
  • Scattered at 10,000' AGL